Time;durP1;ratioP1;P1;durP2;ratioP2;P2;SDS_P1;SDS_P2;PMS_P1;PMS_P2;Temp;Humidity;BMP_temperature;BMP_pressure;BME280_temperature;BME280_humidity;BME280_pressure;Samples;Min_cycle;Max_cycle;Signal;HPM_P1;HPM_P2
2022/09/10 00:00:55;;;;;;;21.58;15.30;;;14.60;99.90;;;;;;5043105;28;20032;-79
2022/09/10 00:03:22;;;;;;;20.73;15.32;;;14.70;99.90;;;;;;5043616;28;20037;-81
2022/09/10 00:05:49;;;;;;;26.17;17.27;;;14.60;99.90;;;;;;5037841;28;20123;-81
2022/09/10 00:08:16;;;;;;;23.63;18.50;;;14.80;99.90;;;;;;5039129;28;20033;-80
2022/09/10 00:10:44;;;;;;;21.02;17.23;;;14.70;99.90;;;;;;5041055;28;20184;-81
2022/09/10 00:13:11;;;;;;;23.25;17.02;;;14.60;99.90;;;;;;5045714;28;20040;-80
2022/09/10 00:15:42;;;;;;;26.73;17.98;;;14.50;99.90;;;;;;5041908;28;20137;-80
2022/09/10 00:18:09;;;;;;;22.65;16.88;;;14.90;99.90;;;;;;5044341;28;20052;-79
2022/09/10 00:20:54;;;;;;;20.33;18.05;;;14.60;99.90;;;;;;5043182;28;20048;-79
2022/09/10 00:23:22;;;;;;;21.98;16.92;;;14.70;99.90;;;;;;5045177;28;20576;-81
2022/09/10 00:25:50;;;;;;;21.40;17.75;;;15.00;99.90;;;;;;5043488;28;20049;-79
2022/09/10 00:28:17;;;;;;;24.73;18.40;;;14.70;99.90;;;;;;5043258;28;20143;-80
2022/09/10 00:30:45;;;;;;;23.75;18.45;;;15.00;99.90;;;;;;5045253;28;20067;-80
2022/09/10 00:33:12;;;;;;;25.45;20.83;;;14.70;99.90;;;;;;5043469;28;20072;-79
2022/09/10 00:35:39;;;;;;;23.25;18.85;;;15.00;99.90;;;;;;5040769;28;20029;-79
2022/09/10 00:38:05;;;;;;;26.10;19.30;;;14.80;99.90;;;;;;5046134;28;20083;-79
2022/09/10 00:40:32;;;;;;;22.70;17.88;;;14.80;99.90;;;;;;5036774;28;20041;-80
2022/09/10 00:42:57;;;;;;;19.60;17.23;;;14.80;99.90;;;;;;5041359;28;20028;-81
2022/09/10 00:45:28;;;;;;;27.85;21.08;;;15.00;99.90;;;;;;5040604;28;20395;-79
2022/09/10 00:48:04;;;;;;;21.77;19.27;;;15.00;99.90;;;;;;5024846;28;20507;-79
2022/09/10 00:50:42;;;;;;;22.10;18.85;;;14.90;99.90;;;;;;5041405;28;20211;-79
2022/09/10 00:53:11;;;;;;;26.23;20.00;;;15.10;99.90;;;;;;5045175;28;20067;-81
2022/09/10 00:55:41;;;;;;;27.35;20.80;;;14.80;99.90;;;;;;5038275;28;20530;-80
2022/09/10 00:58:10;;;;;;;29.58;22.13;;;15.10;99.90;;;;;;5036718;28;20083;-79
2022/09/10 01:00:37;;;;;;;27.08;22.05;;;15.10;99.90;;;;;;5040545;28;20029;-79
2022/09/10 01:03:06;;;;;;;30.80;20.08;;;15.00;99.90;;;;;;5025683;28;20048;-81
2022/09/10 01:05:33;;;;;;;25.75;21.00;;;15.00;99.90;;;;;;5040737;28;20067;-81
2022/09/10 01:07:58;;;;;;;28.25;21.17;;;15.10;99.90;;;;;;5041404;28;20044;-83
2022/09/10 01:10:33;;;;;;;29.17;21.38;;;14.80;99.90;;;;;;5042523;28;20048;-81
2022/09/10 01:13:17;;;;;;;26.55;21.95;;;14.80;99.90;;;;;;5043761;28;20041;-81
2022/09/10 01:16:03;;;;;;;26.48;21.30;;;15.00;99.90;;;;;;5041123;28;20661;-81
2022/09/10 01:18:38;;;;;;;26.30;21.05;;;15.20;99.90;;;;;;5042161;28;20123;-80
2022/09/10 01:21:19;;;;;;;26.45;19.80;;;14.80;99.90;;;;;;5035949;28;20436;-79
2022/09/10 01:24:06;;;;;;;26.98;21.63;;;14.80;99.90;;;;;;5043920;28;20503;-81
2022/09/10 01:27:00;;;;;;;26.88;21.35;;;15.10;99.90;;;;;;5039998;28;20045;-79
2022/09/10 01:29:40;;;;;;;25.40;22.45;;;15.10;99.90;;;;;;5031213;28;20036;-80
2022/09/10 01:32:11;;;;;;;27.23;22.48;;;15.00;99.90;;;;;;5041724;28;20411;-80
2022/09/10 01:35:00;;;;;;;33.15;25.83;;;14.70;99.90;;;;;;5040055;28;20041;-80
2022/09/10 01:37:29;;;;;;;38.00;24.47;;;15.10;99.90;;;;;;5027580;28;20523;-79
2022/09/10 01:39:57;;;;;;;29.33;22.75;;;14.90;99.90;;;;;;5043627;28;20297;-78
2022/09/10 01:42:28;;;;;;;28.70;25.60;;;15.10;99.90;;;;;;5043897;28;20128;-81
2022/09/10 01:44:56;;;;;;;33.40;26.65;;;15.00;99.90;;;;;;5045623;28;20112;-80
2022/09/10 01:47:43;;;;;;;27.80;23.23;;;14.80;99.90;;;;;;5046208;28;20510;-80
2022/09/10 01:50:40;;;;;;;35.00;25.60;;;14.90;99.90;;;;;;5046035;28;20075;-78
2022/09/10 01:53:34;;;;;;;33.15;25.52;;;14.80;99.90;;;;;;5048075;28;20056;-79
2022/09/10 01:56:17;;;;;;;29.95;24.02;;;14.80;99.90;;;;;;5013365;22;20123;-80
2022/09/10 01:58:43;;;;;;;34.95;26.40;;;15.00;99.90;;;;;;5002036;28;20049;-80
2022/09/10 02:01:27;;;;;;;37.17;25.55;;;14.90;99.90;;;;;;5004695;28;20659;-81
2022/09/10 02:03:58;;;;;;;33.42;26.20;;;15.10;99.90;;;;;;5002330;28;20050;-80
2022/09/10 02:06:28;;;;;;;32.15;25.13;;;15.10;99.90;;;;;;5002924;28;20089;-80
2022/09/10 02:08:57;;;;;;;32.28;24.65;;;15.00;99.90;;;;;;5002890;28;20069;-76
2022/09/10 02:11:23;;;;;;;33.72;24.90;;;14.90;99.90;;;;;;5005246;28;20034;-80
2022/09/10 02:13:49;;;;;;;35.20;26.60;;;14.80;99.90;;;;;;5007658;28;20415;-79
2022/09/10 02:16:20;;;;;;;32.80;27.02;;;14.80;99.90;;;;;;5003524;28;20037;-81
2022/09/10 02:18:46;;;;;;;34.97;26.73;;;14.90;99.90;;;;;;5008091;28;20081;-80
2022/09/10 02:21:12;;;;;;;30.63;25.30;;;15.10;99.90;;;;;;5006823;28;20115;-80
2022/09/10 02:23:47;;;;;;;39.80;29.38;;;14.80;99.90;;;;;;5007354;28;20088;-82
2022/09/10 02:26:14;;;;;;;31.85;26.02;;;15.00;99.90;;;;;;5002410;28;20045;-80
2022/09/10 02:28:44;;;;;;;31.17;24.40;;;15.00;99.90;;;;;;5006015;28;20065;-81
2022/09/10 02:31:10;;;;;;;35.67;26.75;;;14.80;99.90;;;;;;5006717;28;20042;-77
2022/09/10 02:33:36;;;;;;;32.65;26.65;;;15.10;99.90;;;;;;5007369;28;20038;-81
2022/09/10 02:36:02;;;;;;;34.40;25.98;;;15.10;99.90;;;;;;5003007;28;20030;-79
2022/09/10 02:38:28;;;;;;;35.15;27.90;;;15.10;99.90;;;;;;5006135;28;20100;-80
2022/09/10 02:40:58;;;;;;;40.67;29.10;;;15.00;99.90;;;;;;5003600;28;20046;-82
2022/09/10 02:43:25;;;;;;;39.88;28.98;;;14.90;99.90;;;;;;5005654;28;20444;-80
2022/09/10 02:45:55;;;;;;;39.80;30.35;;;14.80;99.90;;;;;;5004063;28;20074;-80
2022/09/10 02:48:22;;;;;;;33.03;26.70;;;14.90;99.90;;;;;;5004923;28;20050;-80
2022/09/10 02:50:48;;;;;;;38.88;29.73;;;15.00;99.90;;;;;;5005573;28;20117;-81
2022/09/10 02:53:14;;;;;;;36.30;27.92;;;14.90;99.90;;;;;;5005446;28;20121;-80
2022/09/10 02:55:40;;;;;;;38.35;30.40;;;14.60;99.90;;;;;;5003294;28;20054;-76
2022/09/10 02:58:05;;;;;;;37.53;29.75;;;14.90;99.90;;;;;;5002690;28;20044;-81
2022/09/10 03:00:31;;;;;;;37.00;30.65;;;14.70;99.90;;;;;;5004827;28;20042;-81
2022/09/10 03:02:57;;;;;;;37.42;30.20;;;14.60;99.90;;;;;;5002416;28;20033;-81
2022/09/10 03:05:22;;;;;;;41.35;31.10;;;14.80;99.90;;;;;;5003871;28;20475;-81
2022/09/10 03:07:48;;;;;;;40.10;31.00;;;14.60;99.90;;;;;;5003267;28;20431;-81
2022/09/10 03:10:15;;;;;;;47.05;33.78;;;14.60;99.90;;;;;;5002087;28;20046;-79
2022/09/10 03:12:41;;;;;;;36.45;31.05;;;14.80;99.90;;;;;;5002179;28;20053;-79
2022/09/10 03:15:07;;;;;;;46.72;34.13;;;14.80;99.90;;;;;;5003577;28;20041;-79
2022/09/10 03:17:33;;;;;;;36.90;30.90;;;14.40;99.90;;;;;;4987694;28;20053;-80
2022/09/10 03:19:58;;;;;;;51.83;29.88;;;14.50;99.90;;;;;;5006290;28;20034;-81
2022/09/10 03:22:24;;;;;;;44.53;32.20;;;14.70;99.90;;;;;;5003441;28;20132;-81
2022/09/10 03:24:50;;;;;;;43.10;30.25;;;14.60;99.90;;;;;;5006118;28;20048;-80
2022/09/10 03:27:16;;;;;;;43.72;32.65;;;14.60;99.90;;;;;;5002810;28;20093;-81
2022/09/10 03:29:43;;;;;;;44.10;31.67;;;14.40;99.90;;;;;;5005965;28;20084;-81
2022/09/10 03:32:08;;;;;;;42.40;32.08;;;14.40;99.90;;;;;;5006924;28;20130;-80
2022/09/10 03:34:34;;;;;;;42.25;32.45;;;14.40;99.90;;;;;;5002663;28;20141;-80
2022/09/10 03:37:00;;;;;;;39.22;31.98;;;14.60;99.90;;;;;;5005067;28;20045;-80
2022/09/10 03:39:25;;;;;;;37.35;28.13;;;14.50;99.90;;;;;;5003257;28;20069;-81
2022/09/10 03:41:51;;;;;;;40.15;31.02;;;14.60;99.90;;;;;;5004760;28;20056;-80
2022/09/10 03:44:17;;;;;;;37.90;28.05;;;14.70;99.90;;;;;;5003098;28;20069;-81
2022/09/10 03:46:44;;;;;;;41.45;31.00;;;14.70;99.90;;;;;;5003302;28;20034;-79
2022/09/10 03:49:09;;;;;;;40.00;29.08;;;14.40;99.90;;;;;;5002079;28;20046;-78
2022/09/10 03:51:35;;;;;;;44.13;30.90;;;14.60;99.90;;;;;;5005729;28;20410;-81
2022/09/10 03:54:01;;;;;;;34.83;26.90;;;14.40;99.90;;;;;;5004548;28;20045;-81
2022/09/10 03:56:27;;;;;;;41.15;29.85;;;14.80;99.90;;;;;;5001945;28;20099;-80
2022/09/10 03:58:52;;;;;;;45.40;30.48;;;14.60;99.90;;;;;;5000411;28;20042;-80
2022/09/10 04:01:18;;;;;;;46.47;31.45;;;14.60;99.90;;;;;;5003747;28;20045;-81
2022/09/10 04:03:45;;;;;;;39.75;30.63;;;14.50;99.90;;;;;;5003894;28;20064;-81
2022/09/10 04:06:12;;;;;;;36.17;28.05;;;14.50;99.90;;;;;;5003639;28;20302;-82
2022/09/10 04:08:39;;;;;;;39.30;30.23;;;14.50;99.90;;;;;;5002190;28;20079;-80
2022/09/10 04:11:05;;;;;;;38.15;27.05;;;14.90;99.90;;;;;;5003663;28;20180;-81
2022/09/10 04:13:31;;;;;;;35.63;29.83;;;14.60;99.90;;;;;;5018741;28;20046;-80
2022/09/10 04:15:59;;;;;;;42.65;30.55;;;14.80;99.90;;;;;;5003762;28;20376;-79
2022/09/10 04:18:26;;;;;;;38.13;29.15;;;14.50;99.90;;;;;;5002272;28;20054;-80
2022/09/10 04:20:53;;;;;;;36.13;27.88;;;14.90;99.90;;;;;;5004879;28;20045;-80
2022/09/10 04:23:19;;;;;;;36.78;28.02;;;14.50;99.90;;;;;;5000746;28;20042;-79
2022/09/10 04:25:45;;;;;;;40.85;30.80;;;14.80;99.90;;;;;;5004609;28;20042;-80
2022/09/10 04:28:12;;;;;;;44.10;29.33;;;14.60;99.90;;;;;;5002952;28;20048;-80
2022/09/10 04:30:39;;;;;;;39.00;27.27;;;14.50;99.90;;;;;;5003544;28;20076;-81
2022/09/10 04:33:05;;;;;;;31.23;27.30;;;14.80;99.90;;;;;;5004292;28;20448;-81
2022/09/10 04:35:31;;;;;;;34.28;25.70;;;14.70;99.90;;;;;;5002836;28;20049;-80
2022/09/10 04:37:57;;;;;;;32.78;25.73;;;14.80;99.90;;;;;;4993657;28;20038;-81
2022/09/10 04:40:22;;;;;;;35.08;30.58;;;14.50;99.90;;;;;;5002784;28;20041;-82
2022/09/10 04:42:48;;;;;;;40.35;29.33;;;14.50;99.90;;;;;;5002872;28;20065;-80
2022/09/10 04:45:14;;;;;;;33.40;27.67;;;14.90;99.90;;;;;;5003041;28;20496;-80
2022/09/10 04:47:39;;;;;;;32.90;25.75;;;14.70;99.90;;;;;;5003823;28;20197;-77
2022/09/10 04:50:06;;;;;;;37.70;28.75;;;14.50;99.90;;;;;;5004445;28;20030;-82
2022/09/10 04:52:32;;;;;;;36.40;25.95;;;14.80;99.90;;;;;;4997250;28;20047;-81
2022/09/10 04:54:58;;;;;;;44.63;27.77;;;14.50;99.90;;;;;;5003262;28;20048;-81
2022/09/10 04:57:24;;;;;;;31.90;26.35;;;14.70;99.90;;;;;;4996570;28;20042;-82
2022/09/10 04:59:52;;;;;;;36.55;27.63;;;14.60;99.90;;;;;;5003769;28;20053;-80
2022/09/10 05:02:18;;;;;;;40.35;27.75;;;14.70;99.90;;;;;;4991665;28;20046;-81
2022/09/10 05:04:44;;;;;;;32.90;26.40;;;14.50;99.90;;;;;;5002886;28;20035;-80
2022/09/10 05:07:10;;;;;;;36.13;28.58;;;14.50;99.90;;;;;;4985309;28;20103;-80
2022/09/10 05:09:35;;;;;;;34.88;26.73;;;14.80;99.90;;;;;;5003910;28;20124;-81
2022/09/10 05:12:02;;;;;;;33.67;26.10;;;14.60;99.90;;;;;;5007482;28;20068;-79
2022/09/10 05:14:28;;;;;;;35.40;25.05;;;14.60;99.90;;;;;;5007822;28;20061;-80
2022/09/10 05:16:54;;;;;;;36.25;26.02;;;14.40;99.90;;;;;;5009361;28;20081;-79
2022/09/10 05:19:20;;;;;;;43.60;27.10;;;14.50;99.90;;;;;;5007760;28;20484;-81
2022/09/10 05:21:49;;;;;;;37.85;25.40;;;14.70;99.90;;;;;;5002363;28;20060;-81
2022/09/10 05:24:16;;;;;;;35.43;23.87;;;14.50;99.90;;;;;;5007829;28;20445;-80
2022/09/10 05:26:42;;;;;;;35.25;25.80;;;14.60;99.90;;;;;;5006048;28;20042;-81
2022/09/10 05:29:10;;;;;;;33.75;23.33;;;14.40;99.90;;;;;;5003638;28;20046;-81
2022/09/10 05:31:36;;;;;;;29.25;23.85;;;14.50;99.90;;;;;;4999715;28;20664;-80
2022/09/10 05:34:02;;;;;;;30.92;24.98;;;14.70;99.90;;;;;;5006518;28;20050;-81
2022/09/10 05:36:30;;;;;;;33.75;25.75;;;14.60;99.90;;;;;;5005621;28;20049;-81
2022/09/10 05:38:58;;;;;;;29.52;23.20;;;14.40;99.90;;;;;;5006129;28;20042;-81
2022/09/10 05:41:24;;;;;;;34.60;26.90;;;14.80;99.90;;;;;;5007018;28;20103;-81
2022/09/10 05:43:49;;;;;;;30.75;24.35;;;14.50;99.90;;;;;;5007328;28;20472;-79
2022/09/10 05:46:16;;;;;;;31.23;24.25;;;14.70;99.90;;;;;;5005228;28;20135;-80
2022/09/10 05:48:41;;;;;;;37.08;26.42;;;14.60;99.90;;;;;;5005424;28;20064;-80
2022/09/10 05:51:07;;;;;;;36.33;23.60;;;14.90;99.90;;;;;;5007598;28;20417;-80
2022/09/10 05:53:34;;;;;;;29.00;24.30;;;14.80;99.90;;;;;;5000957;28;20515;-79
2022/09/10 05:55:59;;;;;;;36.78;27.08;;;14.70;99.90;;;;;;5006879;28;20356;-79
2022/09/10 05:58:26;;;;;;;29.98;23.88;;;14.70;99.90;;;;;;5005468;28;20042;-79
2022/09/10 06:00:59;;;;;;;32.78;24.05;;;14.90;99.90;;;;;;5006949;28;20041;-79
2022/09/10 06:03:24;;;;;;;33.75;23.50;;;14.70;99.90;;;;;;5006615;28;20404;-81
2022/09/10 06:05:51;;;;;;;29.13;24.05;;;14.90;99.90;;;;;;5007290;28;20041;-80
2022/09/10 06:08:19;;;;;;;32.05;24.02;;;14.90;99.90;;;;;;5004584;28;20038;-79
2022/09/10 06:11:06;;;;;;;26.55;21.80;;;14.70;99.90;;;;;;4990015;28;20034;-80
2022/09/10 06:13:33;;;;;;;33.35;23.15;;;14.70;99.90;;;;;;5004732;28;20057;-79
2022/09/10 06:15:59;;;;;;;32.58;23.60;;;14.90;99.90;;;;;;5006221;28;20092;-80
2022/09/10 06:18:25;;;;;;;37.08;25.27;;;14.90;99.90;;;;;;5003888;28;20045;-79
2022/09/10 06:21:20;;;;;;;34.75;23.30;;;15.10;99.90;;;;;;5003541;28;20121;-79
2022/09/10 06:23:46;;;;;;;31.73;22.77;;;15.10;99.90;;;;;;5002059;28;20451;-79
2022/09/10 06:26:15;;;;;;;33.97;24.30;;;15.10;99.90;;;;;;5007529;28;20042;-81
2022/09/10 06:28:42;;;;;;;29.80;21.43;;;15.10;99.90;;;;;;5003692;28;20060;-81
2022/09/10 06:31:12;;;;;;;29.08;22.55;;;14.90;99.90;;;;;;5002008;28;20092;-83
2022/09/10 06:33:38;;;;;;;33.45;23.30;;;15.00;99.90;;;;;;5008175;28;20403;-83
2022/09/10 06:36:04;;;;;;;32.33;21.63;;;14.90;99.90;;;;;;5005550;28;20042;-81
2022/09/10 06:38:35;;;;;;;31.30;22.10;;;15.00;99.90;;;;;;5009752;28;20053;-81
2022/09/10 06:41:04;;;;;;;28.55;21.80;;;14.90;99.90;;;;;;5017197;28;20042;-81
2022/09/10 06:43:35;;;;;;;29.27;21.17;;;15.20;99.90;;;;;;5004752;28;20141;-82
2022/09/10 06:46:04;;;;;;;33.80;23.23;;;15.00;99.90;;;;;;5007965;28;20108;-81
2022/09/10 06:48:30;;;;;;;27.55;22.17;;;15.30;99.90;;;;;;5019221;28;20421;-82
2022/09/10 06:50:58;;;;;;;32.22;21.80;;;15.10;99.90;;;;;;4987539;28;20103;-79
2022/09/10 06:53:26;;;;;;;28.05;22.58;;;15.30;99.90;;;;;;5005988;28;20100;-79
2022/09/10 06:55:52;;;;;;;36.65;23.75;;;15.30;99.90;;;;;;4992946;28;20056;-83
2022/09/10 06:58:19;;;;;;;29.58;22.85;;;15.20;99.90;;;;;;5000100;28;20037;-83
2022/09/10 07:00:46;;;;;;;29.38;22.40;;;15.00;99.90;;;;;;5008387;28;20038;-82
2022/09/10 07:03:17;;;;;;;28.52;22.55;;;15.10;99.90;;;;;;5002714;28;20042;-80
2022/09/10 07:05:46;;;;;;;27.13;22.05;;;15.20;99.90;;;;;;5002682;28;20054;-81
2022/09/10 07:08:14;;;;;;;26.50;21.40;;;15.20;99.90;;;;;;5003854;28;20069;-82
2022/09/10 07:10:43;;;;;;;27.88;22.15;;;15.10;99.90;;;;;;5010367;28;20042;-82
2022/09/10 07:13:11;;;;;;;32.53;23.45;;;15.20;99.90;;;;;;5006964;28;20038;-81
2022/09/10 07:15:44;;;;;;;25.65;21.05;;;15.30;99.90;;;;;;4999065;28;20046;-82
2022/09/10 07:18:13;;;;;;;28.77;21.58;;;15.40;99.90;;;;;;5022286;28;20034;-76
2022/09/10 07:20:44;;;;;;;24.23;20.60;;;15.30;99.90;;;;;;5013384;28;20053;-82
2022/09/10 07:23:14;;;;;;;30.40;21.20;;;15.20;99.90;;;;;;5008450;28;20042;-75
2022/09/10 07:25:40;;;;;;;27.63;22.42;;;15.30;99.90;;;;;;5005888;28;20041;-82
2022/09/10 07:28:12;;;;;;;28.45;21.50;;;15.40;99.90;;;;;;5007459;28;20061;-81
2022/09/10 07:30:39;;;;;;;28.83;22.42;;;15.60;99.90;;;;;;5022140;28;20116;-82
2022/09/10 07:33:05;;;;;;;35.90;22.80;;;15.50;99.90;;;;;;5005768;28;20054;-77
2022/09/10 07:35:34;;;;;;;79.28;23.02;;;15.80;99.90;;;;;;5005362;28;20484;-81
2022/09/10 07:37:59;;;;;;;28.83;24.05;;;15.70;99.90;;;;;;5024669;28;20049;-76
2022/09/10 07:40:26;;;;;;;26.60;20.92;;;15.50;99.90;;;;;;5022513;28;20057;-81
2022/09/10 07:42:54;;;;;;;33.85;22.65;;;15.60;99.90;;;;;;5015010;28;20070;-80
2022/09/10 07:45:20;;;;;;;26.50;20.55;;;15.90;99.90;;;;;;5002595;28;20104;-81
2022/09/10 07:47:48;;;;;;;28.75;20.58;;;16.00;99.90;;;;;;5027476;28;20049;-81
2022/09/10 07:50:14;;;;;;;30.25;22.08;;;15.90;99.90;;;;;;5017571;28;20054;-82
2022/09/10 07:52:41;;;;;;;35.15;21.90;;;15.80;99.90;;;;;;5012393;28;20052;-81
2022/09/10 07:55:07;;;;;;;27.30;23.20;;;16.00;99.90;;;;;;5020694;28;20073;-82
2022/09/10 07:57:36;;;;;;;26.67;19.30;;;15.90;99.90;;;;;;5022741;28;20056;-82
2022/09/10 08:00:05;;;;;;;26.92;21.33;;;15.80;99.90;;;;;;5023235;28;20041;-79
2022/09/10 08:02:30;;;;;;;26.70;21.92;;;15.80;99.90;;;;;;5022635;28;20049;-81
2022/09/10 08:04:56;;;;;;;30.75;21.20;;;16.10;99.90;;;;;;5022114;28;20060;-82
2022/09/10 08:07:22;;;;;;;28.30;20.92;;;16.20;99.90;;;;;;5020045;28;20122;-80
2022/09/10 08:09:48;;;;;;;31.35;21.33;;;16.10;99.90;;;;;;5012351;28;20059;-80
2022/09/10 08:12:15;;;;;;;26.23;18.35;;;16.40;99.90;;;;;;5011380;28;20038;-80
2022/09/10 08:14:41;;;;;;;22.58;18.80;;;16.40;99.90;;;;;;5014599;28;20057;-81
2022/09/10 08:17:07;;;;;;;21.75;19.05;;;16.30;99.90;;;;;;5015840;28;20381;-79
2022/09/10 08:19:33;;;;;;;26.70;20.08;;;16.50;99.90;;;;;;5011260;28;20108;-79
2022/09/10 08:21:58;;;;;;;30.05;20.90;;;16.40;99.90;;;;;;5010123;28;20172;-80
2022/09/10 08:24:24;;;;;;;23.63;17.33;;;16.60;99.90;;;;;;5006686;28;20072;-79
2022/09/10 08:26:51;;;;;;;29.98;19.73;;;16.60;99.90;;;;;;5006289;28;20095;-79
2022/09/10 08:29:17;;;;;;;24.15;19.02;;;16.50;99.90;;;;;;5016988;28;20058;-80
2022/09/10 08:31:43;;;;;;;24.00;17.48;;;16.40;99.90;;;;;;5014916;28;20034;-79
2022/09/10 08:34:11;;;;;;;20.90;18.63;;;16.60;99.90;;;;;;5013224;28;20488;-80
2022/09/10 08:36:37;;;;;;;22.05;16.92;;;16.50;99.90;;;;;;5005264;28;20042;-80
2022/09/10 08:39:03;;;;;;;22.20;17.88;;;16.40;99.90;;;;;;5003730;28;20124;-80
2022/09/10 08:41:37;;;;;;;20.85;18.50;;;16.70;99.90;;;;;;5005967;28;20088;-78
2022/09/10 08:44:12;;;;;;;22.67;17.15;;;16.90;99.90;;;;;;5006459;28;20378;-80
2022/09/10 08:46:47;;;;;;;22.73;17.73;;;16.70;99.90;;;;;;4983156;28;20165;-79
2022/09/10 08:49:46;;;;;;;17.80;15.35;;;16.90;99.90;;;;;;4998927;28;20144;-79
2022/09/10 08:52:23;;;;;;;23.63;14.85;;;16.80;99.90;;;;;;4984021;28;20054;-80
2022/09/10 08:55:32;;;;;;;19.77;15.40;;;17.20;99.90;;;;;;4992002;28;20046;-80
2022/09/10 08:58:17;;;;;;;22.45;15.65;;;17.40;99.90;;;;;;4941088;28;20069;-77
2022/09/10 09:00:45;;;;;;;16.50;14.68;;;17.50;99.90;;;;;;5003146;28;20058;-78
2022/09/10 09:03:13;;;;;;;18.17;15.20;;;17.20;99.90;;;;;;5003624;28;20037;-77
2022/09/10 09:05:48;;;;;;;16.95;12.15;;;17.40;99.90;;;;;;5001924;28;20046;-79
2022/09/10 09:08:21;;;;;;;16.48;13.02;;;17.40;99.90;;;;;;5003892;28;20045;-79
2022/09/10 09:11:09;;;;;;;16.60;13.00;;;17.20;99.90;;;;;;5005703;28;20429;-78
2022/09/10 09:13:57;;;;;;;15.45;12.05;;;17.10;99.90;;;;;;5005522;28;20049;-79
2022/09/10 09:16:25;;;;;;;16.73;14.30;;;17.20;99.90;;;;;;5004343;28;20129;-79
2022/09/10 09:19:04;;;;;;;17.10;12.55;;;17.20;99.90;;;;;;5005141;28;20081;-79
2022/09/10 09:21:51;;;;;;;14.03;12.53;;;17.10;99.90;;;;;;4985572;28;20086;-78
2022/09/10 09:24:43;;;;;;;16.75;11.98;;;17.20;99.90;;;;;;4985052;28;20301;-80
2022/09/10 09:27:15;;;;;;;13.82;12.23;;;17.10;99.90;;;;;;4999247;28;21210;-78
2022/09/10 09:29:50;;;;;;;14.40;12.27;;;17.20;99.90;;;;;;5003233;28;20038;-78
2022/09/10 09:32:19;;;;;;;14.05;12.02;;;17.30;99.90;;;;;;5005670;28;20034;-79
2022/09/10 09:35:16;;;;;;;16.02;12.15;;;17.20;99.90;;;;;;5004370;28;20181;-79
2022/09/10 09:37:47;;;;;;;16.38;12.57;;;17.10;99.90;;;;;;5003148;28;20041;-79
2022/09/10 09:40:32;;;;;;;20.48;13.27;;;17.20;99.90;;;;;;5002472;28;20397;-79
2022/09/10 09:43:12;;;;;;;15.95;11.45;;;17.20;99.90;;;;;;4996742;28;20643;-80
2022/09/10 09:45:46;;;;;;;15.70;12.38;;;17.20;99.90;;;;;;5001728;28;20050;-78
2022/09/10 09:48:16;;;;;;;13.77;12.48;;;17.00;99.90;;;;;;5004053;28;20041;-80
2022/09/10 09:50:46;;;;;;;13.65;12.15;;;17.20;99.90;;;;;;5005176;28;20046;-76
2022/09/10 09:53:26;;;;;;;17.60;12.52;;;17.30;99.90;;;;;;4999423;28;20052;-79
2022/09/10 09:55:57;;;;;;;16.87;12.67;;;17.10;99.90;;;;;;4999088;28;20056;-79
2022/09/10 09:58:23;;;;;;;21.00;13.77;;;17.20;99.90;;;;;;4999772;28;20374;-80
2022/09/10 10:01:02;;;;;;;16.02;12.55;;;17.10;99.90;;;;;;4995754;28;20452;-80
2022/09/10 10:03:30;;;;;;;18.67;13.03;;;17.20;99.90;;;;;;5001330;28;20539;-81
2022/09/10 10:06:04;;;;;;;16.00;12.63;;;17.40;99.90;;;;;;4988436;28;20046;-81
2022/09/10 10:08:35;;;;;;;17.35;11.90;;;17.40;99.90;;;;;;4996641;28;20485;-78
2022/09/10 10:11:01;;;;;;;14.57;12.25;;;17.50;99.90;;;;;;5006844;28;20041;-79
2022/09/10 10:13:40;;;;;;;13.63;11.10;;;17.50;99.90;;;;;;5003017;28;20042;-80
2022/09/10 10:16:34;;;;;;;14.90;13.10;;;17.50;99.90;;;;;;5002531;28;20045;-80
2022/09/10 10:19:00;;;;;;;18.13;14.15;;;17.70;99.90;;;;;;5001683;28;20054;-79
2022/09/10 10:21:35;;;;;;;15.90;12.25;;;17.60;99.90;;;;;;4991801;28;20078;-81
2022/09/10 10:24:02;;;;;;;16.40;13.38;;;17.70;99.90;;;;;;5006830;28;20427;-82
2022/09/10 10:26:33;;;;;;;17.63;12.70;;;17.80;99.90;;;;;;5004906;28;20052;-81
2022/09/10 10:29:05;;;;;;;12.73;11.00;;;18.00;99.90;;;;;;4999120;28;20116;-81
2022/09/10 10:31:37;;;;;;;16.90;12.48;;;18.00;99.90;;;;;;4998712;28;20084;-80
2022/09/10 10:34:09;;;;;;;15.23;13.02;;;18.10;99.90;;;;;;5000745;28;20090;-77
2022/09/10 10:36:51;;;;;;;14.23;12.30;;;17.90;99.90;;;;;;4995061;28;20100;-79
2022/09/10 10:39:47;;;;;;;19.65;12.25;;;17.90;99.90;;;;;;5000202;28;20046;-79
2022/09/10 10:42:17;;;;;;;15.35;11.23;;;18.10;99.90;;;;;;4998154;28;20109;-81
2022/09/10 10:45:11;;;;;;;16.35;11.35;;;17.90;99.90;;;;;;4995539;28;20152;-79
2022/09/10 10:47:50;;;;;;;14.02;11.13;;;17.90;99.90;;;;;;5001960;28;20080;-81
2022/09/10 10:50:18;;;;;;;14.65;12.73;;;18.10;99.90;;;;;;4994637;28;20039;-80
2022/09/10 10:52:53;;;;;;;13.70;11.07;;;18.00;99.90;;;;;;5005070;28;20381;-80
2022/09/10 10:55:19;;;;;;;15.38;12.30;;;17.90;99.90;;;;;;5002022;28;20053;-80
2022/09/10 10:58:25;;;;;;;22.33;12.07;;;17.90;99.90;;;;;;5006791;28;20724;-81
2022/09/10 11:00:58;;;;;;;17.08;12.00;;;18.00;99.90;;;;;;5003598;28;20428;-80
2022/09/10 11:03:35;;;;;;;17.65;11.80;;;18.10;99.90;;;;;;4993016;28;20549;-79
2022/09/10 11:06:13;;;;;;;14.80;10.52;;;18.20;99.90;;;;;;5005604;28;20049;-78
2022/09/10 11:09:00;;;;;;;11.85;8.77;;;18.30;99.90;;;;;;5010051;28;20054;-81
2022/09/10 11:11:37;;;;;;;14.15;9.52;;;18.30;99.90;;;;;;5011748;28;20516;-82
2022/09/10 11:14:37;;;;;;;10.80;8.77;;;18.20;99.90;;;;;;5006689;28;20049;-81
2022/09/10 11:17:11;;;;;;;15.35;9.80;;;18.60;99.90;;;;;;5011444;28;20037;-81
2022/09/10 11:19:52;;;;;;;17.35;10.93;;;18.60;99.90;;;;;;5011990;28;20511;-80
2022/09/10 11:22:32;;;;;;;14.35;9.50;;;18.80;99.90;;;;;;5010402;28;20038;-79
2022/09/10 11:25:25;;;;;;;7.95;7.05;;;19.20;99.90;;;;;;4991335;28;20047;-80
2022/09/10 11:28:03;;;;;;;10.98;9.45;;;18.90;99.90;;;;;;5005480;28;20415;-79
2022/09/10 11:30:32;;;;;;;11.48;7.88;;;18.90;99.90;;;;;;5009395;28;20124;-79
2022/09/10 11:33:26;;;;;;;12.32;8.90;;;18.70;99.90;;;;;;5008425;28;20045;-77
2022/09/10 11:36:09;;;;;;;9.82;6.35;;;18.70;99.90;;;;;;5006137;28;20092;-82
2022/09/10 11:38:48;;;;;;;10.55;7.38;;;18.90;99.90;;;;;;5006383;28;20046;-80
2022/09/10 11:41:27;;;;;;;9.80;8.43;;;19.00;99.90;;;;;;5006010;28;20041;-80
2022/09/10 11:44:22;;;;;;;9.32;7.65;;;19.00;99.90;;;;;;5006399;28;20411;-79
2022/09/10 11:47:01;;;;;;;12.65;9.77;;;19.00;99.90;;;;;;5006630;28;20136;-79
2022/09/10 11:49:58;;;;;;;13.20;8.45;;;19.10;99.90;;;;;;5005765;28;20509;-80
2022/09/10 11:52:26;;;;;;;9.68;8.05;;;18.90;99.90;;;;;;4987611;28;20042;-81
2022/09/10 11:54:52;;;;;;;12.55;9.13;;;18.90;99.90;;;;;;4987780;28;20045;-79
2022/09/10 11:57:46;;;;;;;11.88;8.88;;;18.90;99.90;;;;;;4998013;28;20126;-79
2022/09/10 12:00:17;;;;;;;11.45;8.32;;;18.80;99.90;;;;;;4967459;28;20052;-79
2022/09/10 12:03:14;;;;;;;11.75;8.52;;;18.70;99.90;;;;;;5000443;28;20068;-82
2022/09/10 12:06:21;;;;;;;11.35;9.50;;;18.60;99.90;;;;;;4997941;28;20052;-78
2022/09/10 12:09:10;;;;;;;12.07;7.28;;;18.80;99.90;;;;;;4953467;28;20051;-82
2022/09/10 12:11:56;;;;;;;10.25;7.75;;;19.00;99.90;;;;;;5001450;28;21091;-79
2022/09/10 12:14:21;;;;;;;12.55;7.53;;;19.30;99.90;;;;;;5002965;28;20125;-79
2022/09/10 12:16:53;;;;;;;10.65;8.32;;;19.40;99.90;;;;;;5005927;28;20404;-79
2022/09/10 12:19:29;;;;;;;8.48;7.57;;;19.40;99.90;;;;;;5005518;28;20065;-79
2022/09/10 12:22:03;;;;;;;12.80;8.95;;;19.20;99.90;;;;;;5004910;28;20066;-81
2022/09/10 12:24:33;;;;;;;16.15;8.90;;;19.00;99.90;;;;;;5004604;28;20131;-82
2022/09/10 12:27:00;;;;;;;10.95;8.55;;;19.00;99.90;;;;;;4989905;28;20053;-80
2022/09/10 12:29:39;;;;;;;8.43;6.88;;;19.10;99.90;;;;;;5005783;28;20057;-80
2022/09/10 12:32:12;;;;;;;7.95;6.10;;;19.20;99.90;;;;;;5005597;28;20128;-79
2022/09/10 12:34:39;;;;;;;9.35;5.70;;;19.30;99.90;;;;;;5005412;28;20053;-80
2022/09/10 12:37:04;;;;;;;9.60;6.25;;;19.10;99.90;;;;;;5007402;28;20037;-81
2022/09/10 12:39:30;;;;;;;8.25;5.55;;;19.20;99.90;;;;;;5004927;28;20038;-81
2022/09/10 12:42:02;;;;;;;11.13;7.05;;;19.10;99.90;;;;;;5005304;28;20760;-81
2022/09/10 12:44:27;;;;;;;11.43;6.90;;;19.10;99.90;;;;;;5001057;28;20122;-82
2022/09/10 12:47:14;;;;;;;10.25;7.68;;;19.00;99.90;;;;;;5007925;28;20510;-79
2022/09/10 12:49:57;;;;;;;10.32;7.75;;;18.80;99.90;;;;;;5012616;28;20056;-79